createdAt,value
2023-04-07T00:02:20.333Z,96009.41
2023-04-07T00:04:48.595Z,96002.31
2023-04-07T00:07:16.908Z,95997.34
2023-04-07T00:09:45.106Z,95991.56
2023-04-07T00:12:13.361Z,95995.47
2023-04-07T00:14:42.976Z,95999.16
2023-04-07T00:17:11.439Z,96001.50
2023-04-07T00:19:39.628Z,96006.75
2023-04-07T00:22:07.825Z,96002.06
2023-04-07T00:24:36.069Z,96006.25
2023-04-07T00:27:04.240Z,96009.41
2023-04-07T00:29:32.427Z,96006.78
2023-04-07T00:32:01.993Z,95993.66
2023-04-07T00:34:30.213Z,95995.78
2023-04-07T00:36:58.423Z,95988.41
2023-04-07T00:39:27.678Z,95992.16
2023-04-07T00:41:56.569Z,95985.38
2023-04-07T00:44:24.801Z,95983.81
2023-04-07T00:46:53.087Z,95978.63
2023-04-07T00:49:22.724Z,95968.75
2023-04-07T00:51:51.351Z,95969.78
2023-04-07T00:54:19.975Z,95976.59
2023-04-07T00:56:48.201Z,95964.00
2023-04-07T00:59:16.716Z,95971.31
2023-04-07T01:01:49.669Z,95959.75
2023-04-07T01:04:28.071Z,95954.53
2023-04-07T01:07:00.856Z,95950.34
2023-04-07T01:09:36.436Z,95950.38
2023-04-07T01:12:11.364Z,95942.00
2023-04-07T01:14:46.762Z,95942.00
2023-04-07T01:17:16.429Z,95944.34
2023-04-07T01:19:50.244Z,95945.63
2023-04-07T01:22:36.809Z,95936.72
2023-04-07T01:25:29.221Z,95933.84
2023-04-07T01:28:12.914Z,95932.06
2023-04-07T01:30:45.376Z,95927.34
2023-04-07T01:33:15.994Z,95922.66
2023-04-07T01:35:45.110Z,95927.97
2023-04-07T01:38:15.401Z,95922.75
2023-04-07T01:40:44.742Z,95921.50
2023-04-07T01:43:14.221Z,95923.34
2023-04-07T01:45:44.439Z,95926.53
2023-04-07T01:48:13.571Z,95923.63
2023-04-07T01:50:42.172Z,95920.22
2023-04-07T01:53:11.106Z,95919.94
2023-04-07T01:55:39.726Z,95917.31
2023-04-07T01:58:08.036Z,95912.34
2023-04-07T02:00:36.273Z,95911.81
2023-04-07T02:03:12.835Z,95905.00
2023-04-07T02:05:41.745Z,95901.88
2023-04-07T02:08:11.967Z,95911.88
2023-04-07T02:10:40.776Z,95905.34
2023-04-07T02:13:11.738Z,95906.13
2023-04-07T02:15:41.898Z,95909.03
2023-04-07T02:18:13.100Z,95903.00
2023-04-07T02:20:43.743Z,95898.81
2023-04-07T02:23:11.900Z,95897.25
2023-04-07T02:25:40.167Z,95897.25
2023-04-07T02:28:08.569Z,95888.88
2023-04-07T02:30:37.129Z,95890.72
2023-04-07T02:33:05.528Z,95883.66
2023-04-07T02:35:35.206Z,95884.22
2023-04-07T02:38:03.373Z,95880.06
2023-04-07T02:40:31.705Z,95879.03
2023-04-07T02:43:00.481Z,95869.09
2023-04-07T02:45:28.657Z,95871.75
2023-04-07T02:47:56.890Z,95876.47
2023-04-07T02:50:26.153Z,95869.16
2023-04-07T02:52:55.700Z,95876.50
2023-04-07T02:55:23.949Z,95868.16
2023-04-07T02:57:52.212Z,95861.38
2023-04-07T03:00:20.613Z,95854.88
2023-04-07T03:02:48.872Z,95851.00
2023-04-07T03:05:17.099Z,95849.47
2023-04-07T03:07:45.290Z,95852.13
2023-04-07T03:10:14.920Z,95844.81
2023-04-07T03:12:43.113Z,95847.41
2023-04-07T03:15:11.861Z,95842.19
2023-04-07T03:17:40.138Z,95844.81
2023-04-07T03:20:09.668Z,95845.88
2023-04-07T03:22:37.834Z,95840.69
2023-04-07T03:25:06.789Z,95842.28
2023-04-07T03:27:36.349Z,95840.25
2023-04-07T03:30:05.068Z,95839.75
2023-04-07T03:32:33.331Z,95836.34
2023-04-07T03:35:01.580Z,95826.97
2023-04-07T03:37:29.709Z,95827.50
2023-04-07T03:39:57.839Z,95819.91
2023-04-07T03:42:26.153Z,95818.06
2023-04-07T03:44:56.087Z,95812.06
2023-04-07T03:47:24.274Z,95819.91
2023-04-07T03:49:52.490Z,95819.94
2023-04-07T03:52:20.654Z,95819.19
2023-04-07T03:54:48.880Z,95815.28
2023-04-07T03:57:17.037Z,95800.91
2023-04-07T03:59:45.358Z,95805.06
2023-04-07T04:02:15.266Z,95800.66
2023-04-07T04:04:43.612Z,95794.91
2023-04-07T04:07:11.865Z,95784.69
2023-04-07T04:09:40.218Z,95787.34
2023-04-07T04:12:08.497Z,95779.75
2023-04-07T04:14:36.703Z,95781.84
2023-04-07T04:17:05.503Z,95777.69
2023-04-07T04:19:35.513Z,95778.72
2023-04-07T04:22:03.772Z,95783.97
2023-04-07T04:24:31.974Z,95779.53
2023-04-07T04:27:00.131Z,95782.69
2023-04-07T04:29:28.344Z,95783.97
2023-04-07T04:31:56.597Z,95770.16
2023-04-07T04:34:24.842Z,95767.78
2023-04-07T04:36:54.513Z,95764.94
2023-04-07T04:39:22.669Z,95768.31
2023-04-07T04:41:51.113Z,95770.94
2023-04-07T04:44:19.294Z,95771.19
2023-04-07T04:46:47.398Z,95759.47
2023-04-07T04:49:16.405Z,95750.09
2023-04-07T04:51:44.614Z,95746.16
2023-04-07T04:54:14.330Z,95741.19
2023-04-07T04:56:42.908Z,95752.44
2023-04-07T04:59:11.097Z,95758.97
2023-04-07T05:01:39.438Z,95757.13
2023-04-07T05:04:09.552Z,95756.34
2023-04-07T05:06:37.860Z,95753.22
2023-04-07T05:09:06.170Z,95754.25
2023-04-07T05:11:35.890Z,95756.34
2023-04-07T05:14:03.984Z,95759.44
2023-04-07T05:16:32.302Z,95753.16
2023-04-07T05:19:00.519Z,95746.63
2023-04-07T05:21:28.706Z,95743.72
2023-04-07T05:23:56.810Z,95737.72
2023-04-07T05:26:25.005Z,95743.19
2023-04-07T05:28:54.588Z,95738.72
2023-04-07T05:31:22.797Z,95734.53
2023-04-07T05:33:51.238Z,95736.31
2023-04-07T05:36:20.722Z,95733.19
2023-04-07T05:38:48.942Z,95737.34
2023-04-07T05:41:17.121Z,95732.63
2023-04-07T05:43:45.431Z,95733.06
2023-04-07T05:46:15.169Z,95732.56
2023-04-07T05:48:43.359Z,95730.47
2023-04-07T05:51:12.061Z,95739.63
2023-04-07T05:53:40.192Z,95739.91
2023-04-07T05:56:08.419Z,95735.19
2023-04-07T05:58:36.592Z,95748.25
2023-04-07T06:01:04.844Z,95760.81
2023-04-07T06:03:34.725Z,95782.53
2023-04-07T06:06:02.968Z,95793.81
2023-04-07T06:08:31.170Z,95799.34
2023-04-07T06:10:59.334Z,95802.78
2023-04-07T06:13:27.527Z,95819.78
2023-04-07T06:15:56.845Z,95827.34
2023-04-07T06:18:25.227Z,95838.09
2023-04-07T06:20:54.757Z,95840.16
2023-04-07T06:23:22.875Z,95860.75
2023-04-07T06:25:53.239Z,95857.59
2023-04-07T06:28:22.302Z,95851.84
2023-04-07T06:30:50.744Z,95857.34
2023-04-07T06:33:19.785Z,95864.66
2023-04-07T06:35:48.033Z,95869.13
2023-04-07T06:38:17.855Z,95873.28
2023-04-07T06:40:46.086Z,95887.94
2023-04-07T06:43:14.455Z,95890.81
2023-04-07T06:45:42.766Z,95882.22
2023-04-07T06:48:11.462Z,95877.28
2023-04-07T06:50:39.720Z,95890.03
2023-04-07T06:53:07.928Z,95905.75
2023-04-07T06:55:37.605Z,95906.25
2023-04-07T06:58:05.922Z,95920.13
2023-04-07T07:00:34.033Z,95919.59
2023-04-07T07:03:02.225Z,95940.78
2023-04-07T07:05:30.743Z,95935.56
2023-04-07T07:07:59.064Z,95943.66
2023-04-07T07:10:27.320Z,95941.84
2023-04-07T07:12:56.943Z,95945.22
2023-04-07T07:15:25.170Z,95944.44
2023-04-07T07:17:53.422Z,95937.66
2023-04-07T07:20:23.656Z,95937.91
2023-04-07T07:22:52.054Z,95934.75
2023-04-07T07:25:20.386Z,95934.78
2023-04-07T07:27:52.163Z,95940.00
2023-04-07T07:30:22.831Z,95938.69
2023-04-07T07:32:51.205Z,95936.63
2023-04-07T07:35:19.326Z,95940.25
2023-04-07T07:37:47.628Z,95938.13
2023-04-07T07:40:16.069Z,95948.03
2023-04-07T07:42:44.305Z,95944.84
2023-04-07T07:45:14.102Z,95952.13
2023-04-07T07:47:43.828Z,95954.19
2023-04-07T07:50:12.714Z,95947.38
2023-04-07T07:52:41.953Z,95967.50
2023-04-07T07:55:10.967Z,95959.94
2023-04-07T07:57:40.296Z,95957.34
2023-04-07T08:00:09.868Z,95976.47
2023-04-07T08:02:39.146Z,95977.28
2023-04-07T08:05:09.704Z,95979.41
2023-04-07T08:07:37.954Z,95982.56
2023-04-07T08:10:06.830Z,95988.34
2023-04-07T08:12:35.075Z,95985.25
2023-04-07T08:15:03.344Z,95997.31
2023-04-07T08:17:31.812Z,95995.19
2023-04-07T08:20:00.191Z,96013.44
2023-04-07T08:22:29.828Z,96012.91
2023-04-07T08:24:58.422Z,96007.16
2023-04-07T08:27:26.673Z,96011.88
2023-04-07T08:30:01.458Z,96010.03
2023-04-07T08:32:36.789Z,96020.19
2023-04-07T08:35:05.773Z,96012.09
2023-04-07T08:37:36.172Z,96001.91
2023-04-07T08:40:05.520Z,96005.25
2023-04-07T08:42:35.099Z,96009.19
2023-04-07T08:45:05.368Z,96017.00
2023-04-07T08:47:35.820Z,96026.44
2023-04-07T08:50:05.681Z,96023.09
2023-04-07T08:52:41.353Z,96027.53
2023-04-07T08:55:10.914Z,96027.56
2023-04-07T08:57:39.406Z,96026.03
2023-04-07T09:00:09.288Z,96031.78
2023-04-07T09:02:39.611Z,96026.00
2023-04-07T09:05:09.949Z,96016.31
2023-04-07T09:07:43.307Z,96021.81
2023-04-07T09:10:12.131Z,96016.66
2023-04-07T09:12:40.595Z,96014.03
2023-04-07T09:15:11.795Z,96008.53
2023-04-07T09:17:40.145Z,96014.00
2023-04-07T09:20:09.282Z,96005.59
2023-04-07T09:22:45.687Z,95998.97
2023-04-07T09:25:16.209Z,95993.91
2023-04-07T09:27:59.735Z,95981.78
2023-04-07T09:30:29.212Z,95984.47
2023-04-07T09:32:58.466Z,95977.13
2023-04-07T09:35:28.580Z,95982.59
2023-04-07T09:38:05.807Z,95975.69
2023-04-07T09:40:34.113Z,95972.13
2023-04-07T09:43:04.324Z,95981.22
2023-04-07T09:45:40.310Z,95983.09
2023-04-07T09:48:09.145Z,95981.81
2023-04-07T09:50:41.459Z,95994.53
2023-04-07T09:53:11.399Z,95989.53
2023-04-07T09:55:41.915Z,95984.31
2023-04-07T09:58:13.556Z,95980.94
2023-04-07T10:00:42.579Z,95974.50
2023-04-07T10:03:10.863Z,95979.78
2023-04-07T10:05:40.609Z,95971.38
2023-04-07T10:08:11.321Z,95965.31
2023-04-07T10:10:43.300Z,95964.63
2023-04-07T10:13:11.855Z,95961.34
2023-04-07T10:15:40.724Z,95964.38
2023-04-07T10:18:10.054Z,95968.34
2023-04-07T10:20:42.838Z,95957.81
2023-04-07T10:23:19.332Z,95959.72
2023-04-07T10:25:52.753Z,95961.91
2023-04-07T10:28:24.623Z,95951.75
2023-04-07T10:30:54.041Z,95961.16
2023-04-07T10:33:47.065Z,95950.75
2023-04-07T10:36:15.881Z,95951.34
2023-04-07T10:39:20.884Z,95952.53
2023-04-07T10:41:49.179Z,95951.09
2023-04-07T10:44:50.756Z,95955.91
2023-04-07T10:47:19.555Z,95953.47
2023-04-07T10:50:19.121Z,95954.38
2023-04-07T10:52:47.994Z,95953.63
2023-04-07T10:55:34.772Z,95953.06
2023-04-07T10:58:24.086Z,95942.72
2023-04-07T11:01:23.380Z,95951.81
2023-04-07T11:04:01.786Z,95938.34
2023-04-07T11:06:30.364Z,95938.50
2023-04-07T11:08:58.635Z,95939.34
2023-04-07T11:11:43.804Z,95943.25
2023-04-07T11:14:12.053Z,95932.28
2023-04-07T11:16:45.906Z,95932.88
2023-04-07T11:19:14.184Z,95943.69
2023-04-07T11:21:42.406Z,95934.78
2023-04-07T11:24:10.703Z,95945.97
2023-04-07T11:26:41.016Z,95945.72
2023-04-07T11:29:12.275Z,95947.22
2023-04-07T11:31:40.890Z,95956.97
2023-04-07T11:34:09.754Z,95950.16
2023-04-07T11:36:41.688Z,95940.56
2023-04-07T11:39:20.582Z,95949.16
2023-04-07T11:41:50.535Z,95945.84
2023-04-07T11:44:20.257Z,95945.66
2023-04-07T11:46:55.842Z,95939.78
2023-04-07T11:49:25.530Z,95947.81
2023-04-07T11:52:00.298Z,95942.72
2023-04-07T11:54:29.248Z,95943.88
2023-04-07T11:56:57.803Z,95943.91
2023-04-07T11:59:28.814Z,95947.69
2023-04-07T12:01:58.008Z,95941.50
2023-04-07T12:04:26.880Z,95941.44
2023-04-07T12:06:55.164Z,95946.19
2023-04-07T12:09:29.476Z,95946.97
2023-04-07T12:11:58.756Z,95954.28
2023-04-07T12:14:28.847Z,95946.25
2023-04-07T12:16:58.284Z,95940.69
2023-04-07T12:19:28.261Z,95948.25
2023-04-07T12:21:56.569Z,95943.69
2023-04-07T12:24:25.025Z,95948.09
2023-04-07T12:26:53.322Z,95944.91
2023-04-07T12:29:23.128Z,95944.84
2023-04-07T12:31:52.782Z,95944.78
2023-04-07T12:34:21.103Z,95940.91
2023-04-07T12:36:49.491Z,95933.75
2023-04-07T12:39:17.860Z,95936.28
2023-04-07T12:41:47.764Z,95938.41
2023-04-07T12:44:16.810Z,95937.47
2023-04-07T12:46:45.036Z,95933.56
2023-04-07T12:49:14.654Z,95935.69
2023-04-07T12:51:43.073Z,95939.00
2023-04-07T12:54:11.246Z,95934.91
2023-04-07T12:56:40.938Z,95939.41
2023-04-07T12:59:09.851Z,95937.38
2023-04-07T13:01:38.512Z,95935.88
2023-04-07T13:04:06.961Z,95935.31
2023-04-07T13:06:36.725Z,95922.59
2023-04-07T13:09:05.046Z,95915.31
2023-04-07T13:11:33.419Z,95920.78
2023-04-07T13:14:02.003Z,95913.81
2023-04-07T13:16:30.573Z,95909.84
2023-04-07T13:18:59.010Z,95914.72
2023-04-07T13:21:45.398Z,95898.81
2023-04-07T13:24:16.446Z,95899.41
2023-04-07T13:26:44.632Z,95897.84
2023-04-07T13:29:12.863Z,95899.59
2023-04-07T13:31:41.229Z,95902.72
2023-04-07T13:34:09.470Z,95897.44
2023-04-07T13:36:37.677Z,95893.94
2023-04-07T13:39:05.854Z,95897.53
2023-04-07T13:41:35.520Z,95898.63
2023-04-07T13:44:03.863Z,95892.66
2023-04-07T13:46:32.033Z,95894.53
2023-04-07T13:49:00.373Z,95883.19
2023-04-07T13:51:29.503Z,95887.69
2023-04-07T13:53:57.741Z,95888.88
2023-04-07T13:56:25.945Z,95880.84
2023-04-07T13:58:55.489Z,95878.31
2023-04-07T14:01:23.854Z,95880.81
2023-04-07T14:03:52.898Z,95880.44
2023-04-07T14:06:22.962Z,95874.97
2023-04-07T14:08:51.456Z,95881.22
2023-04-07T14:11:19.866Z,95874.78
2023-04-07T14:13:48.224Z,95879.06
2023-04-07T14:16:18.319Z,95877.72
2023-04-07T14:18:46.961Z,95883.66
2023-04-07T14:21:15.384Z,95872.31
2023-04-07T14:23:43.619Z,95875.16
2023-04-07T14:26:12.638Z,95878.28
2023-04-07T14:28:41.709Z,95868.91
2023-04-07T14:31:14.342Z,95866.94
2023-04-07T14:33:44.286Z,95868.09
2023-04-07T14:36:13.018Z,95864.38
2023-04-07T14:38:41.230Z,95867.69
2023-04-07T14:41:10.803Z,95861.63
2023-04-07T14:43:39.776Z,95859.06
2023-04-07T14:46:08.237Z,95870.97
2023-04-07T14:48:36.466Z,95867.31
2023-04-07T14:51:12.778Z,95863.34
2023-04-07T14:53:43.401Z,95855.31
2023-04-07T14:56:11.723Z,95862.03
2023-04-07T14:58:40.853Z,95863.78
2023-04-07T15:01:09.571Z,95865.81
2023-04-07T15:03:38.022Z,95858.97
2023-04-07T15:06:10.145Z,95865.19
2023-04-07T15:08:38.840Z,95863.88
2023-04-07T15:11:07.346Z,95855.19
2023-04-07T15:13:36.238Z,95852.25
2023-04-07T15:16:08.920Z,95849.97
2023-04-07T15:18:37.294Z,95848.78
2023-04-07T15:21:06.112Z,95841.03
2023-04-07T15:23:37.743Z,95840.63
2023-04-07T15:26:06.456Z,95837.03
2023-04-07T15:28:34.861Z,95846.41
2023-04-07T15:31:03.232Z,95846.81
2023-04-07T15:33:31.465Z,95838.94
2023-04-07T15:36:01.401Z,95849.22
2023-04-07T15:38:29.884Z,95846.31
2023-04-07T15:40:59.501Z,95846.13
2023-04-07T15:43:27.664Z,95847.13
2023-04-07T15:45:56.800Z,95841.47
2023-04-07T15:48:25.267Z,95840.22
2023-04-07T15:50:54.988Z,95841.66
2023-04-07T15:53:23.362Z,95838.44
2023-04-07T15:55:51.535Z,95842.22
2023-04-07T15:58:21.176Z,95844.66
2023-04-07T16:00:49.635Z,95847.84
2023-04-07T16:03:18.034Z,95839.66
2023-04-07T16:05:46.379Z,95842.00
2023-04-07T16:08:14.654Z,95846.13
2023-04-07T16:10:43.153Z,95846.13
2023-04-07T16:13:11.546Z,95848.06
2023-04-07T16:15:41.901Z,95854.28
2023-04-07T16:18:11.604Z,95845.13
2023-04-07T16:20:40.150Z,95852.53
2023-04-07T16:23:08.320Z,95854.00
2023-04-07T16:25:36.823Z,95854.31
2023-04-07T16:28:05.233Z,95848.69
2023-04-07T16:30:33.489Z,95858.06
2023-04-07T16:33:03.428Z,95861.97
2023-04-07T16:35:32.170Z,95856.00
2023-04-07T16:38:04.133Z,95857.28
2023-04-07T16:40:32.373Z,95855.63
2023-04-07T16:43:00.524Z,95850.66
2023-04-07T16:45:28.819Z,95848.91
2023-04-07T16:47:57.057Z,95858.44
2023-04-07T16:50:26.753Z,95851.72
2023-04-07T16:52:57.413Z,95857.47
2023-04-07T16:55:25.965Z,95861.19
2023-04-07T16:57:54.217Z,95861.19
2023-04-07T17:00:22.878Z,95859.72
2023-04-07T17:02:51.254Z,95863.50
2023-04-07T17:05:19.548Z,95861.50
2023-04-07T17:07:49.403Z,95863.63
2023-04-07T17:10:17.691Z,95867.28
2023-04-07T17:12:46.254Z,95877.19
2023-04-07T17:15:15.401Z,95875.31
2023-04-07T17:17:43.815Z,95878.38
2023-04-07T17:20:13.486Z,95886.22
2023-04-07T17:22:41.639Z,95879.75
2023-04-07T17:25:12.270Z,95894.31
2023-04-07T17:27:40.433Z,95885.72
2023-04-07T17:30:09.984Z,95900.25
2023-04-07T17:32:38.236Z,95897.47
2023-04-07T17:35:07.210Z,95895.88
2023-04-07T17:37:35.576Z,95910.09
2023-04-07T17:40:03.800Z,95894.88
2023-04-07T17:42:33.782Z,95900.19
2023-04-07T17:45:02.024Z,95910.28
2023-04-07T17:47:30.255Z,95907.22
2023-04-07T17:49:58.467Z,95910.47
2023-04-07T17:52:26.717Z,95909.47
2023-04-07T17:54:55.587Z,95916.88
2023-04-07T17:57:24.174Z,95925.88
2023-04-07T17:59:53.754Z,95919.38
2023-04-07T18:02:22.293Z,95919.72
2023-04-07T18:04:50.962Z,95931.31
2023-04-07T18:07:19.168Z,95931.63
2023-04-07T18:09:47.312Z,95936.16
2023-04-07T18:12:15.442Z,95940.44
2023-04-07T18:14:43.552Z,95938.41
2023-04-07T18:17:13.210Z,95939.78
2023-04-07T18:19:41.654Z,95944.28
2023-04-07T18:22:10.881Z,95956.94
2023-04-07T18:24:39.252Z,95956.47
2023-04-07T18:27:07.574Z,95958.06
2023-04-07T18:29:35.998Z,95959.66
2023-04-07T18:32:04.360Z,95956.00
2023-04-07T18:34:34.043Z,95967.00
2023-04-07T18:37:02.380Z,95959.69
2023-04-07T18:39:30.603Z,95969.66
2023-04-07T18:41:58.861Z,95965.75
2023-04-07T18:44:28.634Z,95973.88
2023-04-07T18:46:56.846Z,95972.06
2023-04-07T18:49:27.162Z,95978.63
2023-04-07T18:51:57.965Z,95973.91
2023-04-07T18:54:27.296Z,95975.25
2023-04-07T18:56:56.278Z,95983.38
2023-04-07T18:59:24.818Z,95982.63
2023-04-07T19:01:53.204Z,95988.66
2023-04-07T19:04:24.733Z,95995.50
2023-04-07T19:06:53.526Z,95988.69
2023-04-07T19:09:23.071Z,96001.28
2023-04-07T19:11:51.410Z,95992.69
2023-04-07T19:14:19.671Z,95992.94
2023-04-07T19:16:48.182Z,95999.25
2023-04-07T19:19:17.409Z,95998.22
2023-04-07T19:21:45.863Z,96000.31
2023-04-07T19:24:14.008Z,95999.78
2023-04-07T19:26:43.882Z,96011.84
2023-04-07T19:29:12.614Z,96012.38
2023-04-07T19:31:40.970Z,96009.00
2023-04-07T19:34:09.185Z,96016.06
2023-04-07T19:36:37.754Z,96023.16
2023-04-07T19:39:06.141Z,96021.84
2023-04-07T19:41:34.497Z,96025.50
2023-04-07T19:44:04.246Z,96027.06
2023-04-07T19:46:34.291Z,96036.50
2023-04-07T19:49:02.509Z,96032.56
2023-04-07T19:51:31.192Z,96031.25
2023-04-07T19:53:59.400Z,96034.94
2023-04-07T19:56:27.680Z,96039.38
2023-04-07T19:58:56.313Z,96047.50
2023-04-07T20:01:26.693Z,96044.63
2023-04-07T20:03:55.259Z,96047.50
2023-04-07T20:06:26.719Z,96052.47
2023-04-07T20:08:55.651Z,96043.84
2023-04-07T20:11:23.952Z,96051.44
2023-04-07T20:13:52.306Z,96055.09
2023-04-07T20:16:20.594Z,96048.03
2023-04-07T20:18:50.485Z,96054.84
2023-04-07T20:21:18.814Z,96054.31
2023-04-07T20:23:47.357Z,96063.72
2023-04-07T20:26:15.734Z,96064.25
2023-04-07T20:28:43.944Z,96061.91
2023-04-07T20:31:12.234Z,96064.00
2023-04-07T20:33:40.473Z,96067.38
2023-04-07T20:36:10.121Z,96067.38
2023-04-07T20:38:38.353Z,96072.34
2023-04-07T20:41:06.530Z,96070.00
2023-04-07T20:43:34.705Z,96076.31
2023-04-07T20:46:02.958Z,96078.66
2023-04-07T20:48:32.610Z,96084.13
2023-04-07T20:51:01.631Z,96077.34
2023-04-07T20:53:31.633Z,96080.47
2023-04-07T20:56:00.414Z,96080.19
2023-04-07T20:58:29.091Z,96077.53
2023-04-07T21:00:57.842Z,96079.88
2023-04-07T21:03:27.196Z,96087.19
2023-04-07T21:05:56.796Z,96090.84
2023-04-07T21:08:25.552Z,96095.03
2023-04-07T21:10:55.890Z,96087.69
2023-04-07T21:13:25.985Z,96087.97
2023-04-07T21:15:54.704Z,96091.88
2023-04-07T21:18:23.071Z,96090.31
2023-04-07T21:20:51.403Z,96087.16
2023-04-07T21:23:19.742Z,96091.06
2023-04-07T21:25:49.559Z,96091.31
2023-04-07T21:28:19.174Z,96103.88
2023-04-07T21:30:47.715Z,96099.16
2023-04-07T21:33:16.107Z,96092.88
2023-04-07T21:35:44.328Z,96099.66
2023-04-07T21:38:12.636Z,96102.78
2023-04-07T21:40:41.439Z,96105.09
2023-04-07T21:43:09.856Z,96099.28
2023-04-07T21:45:39.875Z,96103.47
2023-04-07T21:48:08.140Z,96104.00
2023-04-07T21:50:37.372Z,96098.50
2023-04-07T21:53:05.961Z,96107.38
2023-04-07T21:55:34.283Z,96102.16
2023-04-07T21:58:02.690Z,96108.97
2023-04-07T22:00:31.520Z,96109.47
2023-04-07T22:03:02.085Z,96103.22
2023-04-07T22:05:30.987Z,96106.28
2023-04-07T22:07:59.423Z,96108.34
2023-04-07T22:10:27.812Z,96112.78
2023-04-07T22:12:56.097Z,96101.03
2023-04-07T22:15:25.307Z,96112.53
2023-04-07T22:17:53.987Z,96114.31
2023-04-07T22:20:23.748Z,96115.38
2023-04-07T22:22:51.889Z,96120.34
2023-04-07T22:25:20.300Z,96125.56
2023-04-07T22:27:48.480Z,96120.06
2023-04-07T22:30:16.756Z,96122.88
2023-04-07T22:32:44.944Z,96129.66
2023-04-07T22:35:13.454Z,96126.00
2023-04-07T22:37:43.012Z,96126.53
2023-04-07T22:40:11.670Z,96130.19
2023-04-07T22:42:40.839Z,96128.06
2023-04-07T22:45:10.207Z,96134.28
2023-04-07T22:47:38.392Z,96134.22
2023-04-07T22:50:07.893Z,96139.34
2023-04-07T22:52:36.158Z,96144.50
2023-04-07T22:55:06.669Z,96141.34
2023-04-07T22:57:34.784Z,96148.13
2023-04-07T23:00:02.976Z,96148.69
2023-04-07T23:02:31.872Z,96152.38
2023-04-07T23:05:00.047Z,96146.84
2023-04-07T23:07:28.350Z,96148.88
2023-04-07T23:09:56.502Z,96150.91
2023-04-07T23:12:26.184Z,96154.72
2023-04-07T23:14:54.221Z,96156.44
2023-04-07T23:17:22.358Z,96154.28
2023-04-07T23:19:50.784Z,96161.72
2023-04-07T23:22:18.838Z,96159.53
2023-04-07T23:24:47.119Z,96163.38
2023-04-07T23:27:15.696Z,96159.91
2023-04-07T23:29:45.324Z,96167.19
2023-04-07T23:32:13.541Z,96165.63
2023-04-07T23:34:42.024Z,96163.25
2023-04-07T23:37:10.138Z,96169.72
2023-04-07T23:39:38.178Z,96170.22
2023-04-07T23:42:06.244Z,96161.56
2023-04-07T23:44:34.344Z,96175.53
2023-04-07T23:47:03.926Z,96167.94
2023-04-07T23:49:32.180Z,96168.41
2023-04-07T23:52:00.561Z,96171.97
2023-04-07T23:54:28.711Z,96183.38
2023-04-07T23:56:57.250Z,96184.09
2023-04-07T23:59:25.609Z,96179.34
